Time;durP1;ratioP1;P1;durP2;ratioP2;P2;SDS_P1;SDS_P2;PMS_P1;PMS_P2;Temp;Humidity;BMP_temperature;BMP_pressure;BME280_temperature;BME280_humidity;BME280_pressure;Samples;Min_cycle;Max_cycle;Signal;HPM_P1;HPM_P2
2021/08/13 00:02:22;;;;;;;8.10;4.82;;;;;;;;;;5017503;28;20044;-79
2021/08/13 00:04:47;;;;;;;7.10;4.30;;;;;;;;;;5034056;28;20041;-79
2021/08/13 00:07:13;;;;;;;6.47;5.15;;;;;;;;;;5017004;28;20041;-79
2021/08/13 00:09:40;;;;;;;7.55;5.13;;;;;;;;;;5032933;28;20052;-79
2021/08/13 00:12:06;;;;;;;6.90;4.72;;;;;;;;;;5017106;28;20037;-79
2021/08/13 00:14:31;;;;;;;5.80;4.05;;;;;;;;;;5050341;28;20586;-79
2021/08/13 00:16:57;;;;;;;6.22;5.03;;;;;;;;;;5033475;28;20174;-79
2021/08/13 00:19:22;;;;;;;5.20;4.40;;;;;;;;;;5033618;28;20045;-79
2021/08/13 00:21:49;;;;;;;7.00;5.18;;;;;;;;;;5033379;28;20051;-79
2021/08/13 00:24:15;;;;;;;6.32;4.65;;;;;;;;;;5033435;28;20036;-79
2021/08/13 00:26:40;;;;;;;6.53;4.78;;;;;;;;;;5033354;28;20029;-79
2021/08/13 00:29:06;;;;;;;5.63;4.38;;;;;;;;;;5033335;28;20051;-78
2021/08/13 00:31:31;;;;;;;7.82;5.30;;;;;;;;;;5017057;28;20032;-79
2021/08/13 00:33:57;;;;;;;5.57;4.43;;;;;;;;;;5016879;28;20044;-79
2021/08/13 00:36:22;;;;;;;5.35;4.53;;;;;;;;;;5033385;28;20125;-79
2021/08/13 00:38:48;;;;;;;6.30;4.68;;;;;;;;;;5033207;28;20049;-79
2021/08/13 00:41:13;;;;;;;5.97;4.72;;;;;;;;;;5032900;28;20045;-79
2021/08/13 00:43:39;;;;;;;6.38;4.32;;;;;;;;;;5033575;28;20075;-79
2021/08/13 00:46:04;;;;;;;7.70;4.72;;;;;;;;;;5034698;28;20075;-79
2021/08/13 00:48:30;;;;;;;7.15;4.60;;;;;;;;;;5033173;28;20029;-79
2021/08/13 00:50:56;;;;;;;5.38;4.43;;;;;;;;;;5049880;28;20155;-78
2021/08/13 00:53:21;;;;;;;8.50;5.63;;;;;;;;;;5016317;28;20120;-79
2021/08/13 00:55:48;;;;;;;5.40;4.63;;;;;;;;;;5033209;28;20036;-79
2021/08/13 00:58:13;;;;;;;5.57;4.43;;;;;;;;;;5016779;28;20037;-79
2021/08/13 01:00:39;;;;;;;5.53;4.28;;;;;;;;;;5016852;28;20029;-79
2021/08/13 01:03:04;;;;;;;7.00;4.47;;;;;;;;;;5033571;28;20037;-79
2021/08/13 01:05:30;;;;;;;5.55;4.20;;;;;;;;;;5019842;28;20029;-79
2021/08/13 01:07:55;;;;;;;5.90;5.10;;;;;;;;;;5036214;28;20043;-78
2021/08/13 01:10:24;;;;;;;7.10;5.00;;;;;;;;;;5019731;28;20052;-79
2021/08/13 01:13:11;;;;;;;6.78;5.25;;;;;;;;;;5037413;28;20518;-79
2021/08/13 01:15:57;;;;;;;6.50;4.72;;;;;;;;;;5019911;28;20029;-79
2021/08/13 01:18:28;;;;;;;5.95;4.80;;;;;;;;;;5036584;28;20219;-79
2021/08/13 01:21:08;;;;;;;5.93;4.68;;;;;;;;;;5019829;28;20411;-79
2021/08/13 01:23:38;;;;;;;7.30;5.22;;;;;;;;;;5052829;28;20077;-79
2021/08/13 01:26:03;;;;;;;9.55;4.88;;;;;;;;;;5020453;28;20045;-79
2021/08/13 01:28:58;;;;;;;7.07;4.82;;;;;;;;;;5019841;28;20029;-79
2021/08/13 01:31:24;;;;;;;6.85;4.75;;;;;;;;;;5022045;28;20056;-79
2021/08/13 01:34:01;;;;;;;6.93;4.72;;;;;;;;;;5019497;28;20025;-79
2021/08/13 01:36:28;;;;;;;5.75;4.32;;;;;;;;;;5019406;28;20025;-79
2021/08/13 01:38:54;;;;;;;4.72;4.25;;;;;;;;;;5019536;28;20076;-79
2021/08/13 01:41:19;;;;;;;5.38;4.63;;;;;;;;;;5019243;28;20169;-79
2021/08/13 01:43:45;;;;;;;6.85;5.15;;;;;;;;;;5019698;28;20036;-79
2021/08/13 01:46:12;;;;;;;5.88;4.93;;;;;;;;;;5038476;28;20499;-79
2021/08/13 01:48:37;;;;;;;6.82;5.15;;;;;;;;;;5024879;28;20036;-79
2021/08/13 01:51:03;;;;;;;5.57;4.70;;;;;;;;;;5002634;28;20045;-79
2021/08/13 01:53:29;;;;;;;6.50;4.72;;;;;;;;;;5019602;28;20388;-79
2021/08/13 01:55:55;;;;;;;6.97;5.03;;;;;;;;;;5019319;28;20061;-79
2021/08/13 01:58:20;;;;;;;6.57;4.75;;;;;;;;;;5002850;28;20028;-79
2021/08/13 02:00:46;;;;;;;6.25;5.00;;;;;;;;;;5002977;28;20047;-79
2021/08/13 02:03:11;;;;;;;6.03;4.43;;;;;;;;;;5035839;28;20041;-79
2021/08/13 02:05:37;;;;;;;6.82;4.90;;;;;;;;;;5018788;28;20045;-79
2021/08/13 02:08:05;;;;;;;4.82;4.22;;;;;;;;;;5019023;28;20060;-78
2021/08/13 02:10:31;;;;;;;6.10;4.63;;;;;;;;;;5018734;28;20033;-79
2021/08/13 02:12:56;;;;;;;5.85;5.18;;;;;;;;;;5018757;28;20039;-79
2021/08/13 02:15:22;;;;;;;6.78;4.72;;;;;;;;;;5018812;28;20263;-78
2021/08/13 02:18:12;;;;;;;6.97;5.68;;;;;;;;;;5035269;28;20055;-79
2021/08/13 02:20:38;;;;;;;5.10;4.35;;;;;;;;;;5040031;28;20045;-79
2021/08/13 02:23:07;;;;;;;7.03;4.72;;;;;;;;;;5034954;28;20507;-79
2021/08/13 02:25:33;;;;;;;6.25;5.10;;;;;;;;;;5035488;28;20039;-78
2021/08/13 02:27:58;;;;;;;6.35;5.05;;;;;;;;;;5035523;28;20041;-79
2021/08/13 02:30:24;;;;;;;5.90;5.00;;;;;;;;;;5035413;28;20086;-79
2021/08/13 02:32:50;;;;;;;5.50;4.60;;;;;;;;;;5035081;28;20024;-79
2021/08/13 02:35:15;;;;;;;6.53;4.68;;;;;;;;;;5001662;28;20569;-79
2021/08/13 02:37:52;;;;;;;7.22;5.15;;;;;;;;;;5001801;28;20035;-79
2021/08/13 02:40:22;;;;;;;6.20;4.80;;;;;;;;;;5051515;28;20055;-79
2021/08/13 02:42:53;;;;;;;7.15;5.07;;;;;;;;;;5035149;28;20044;-79
2021/08/13 02:45:21;;;;;;;5.55;4.70;;;;;;;;;;5045524;28;20525;-79
2021/08/13 02:47:47;;;;;;;5.85;5.03;;;;;;;;;;5034639;28;20033;-79
2021/08/13 02:50:12;;;;;;;6.75;5.35;;;;;;;;;;5018082;28;20060;-79
2021/08/13 02:52:47;;;;;;;6.18;4.97;;;;;;;;;;5018230;28;20036;-79
2021/08/13 02:55:15;;;;;;;6.22;5.07;;;;;;;;;;5035480;28;20044;-79
2021/08/13 02:57:41;;;;;;;6.32;4.82;;;;;;;;;;5034674;28;20033;-79
2021/08/13 03:00:07;;;;;;;8.27;5.60;;;;;;;;;;5051002;28;20029;-79
2021/08/13 03:02:32;;;;;;;9.77;5.32;;;;;;;;;;5018166;28;20025;-79
2021/08/13 03:04:58;;;;;;;7.70;5.60;;;;;;;;;;5033884;28;20045;-79
2021/08/13 03:07:24;;;;;;;8.80;5.93;;;;;;;;;;5034453;28;20040;-79
2021/08/13 03:09:49;;;;;;;6.60;4.95;;;;;;;;;;5034108;28;20037;-79
2021/08/13 03:12:15;;;;;;;6.13;5.03;;;;;;;;;;5017975;28;20037;-79
2021/08/13 03:14:40;;;;;;;5.82;5.22;;;;;;;;;;5017881;28;20033;-79
2021/08/13 03:17:06;;;;;;;8.75;6.15;;;;;;;;;;5017578;28;20032;-79
2021/08/13 03:19:31;;;;;;;7.22;6.10;;;;;;;;;;5033773;28;20052;-79
2021/08/13 03:21:57;;;;;;;7.30;5.55;;;;;;;;;;5034140;28;20055;-79
2021/08/13 03:24:22;;;;;;;7.70;5.95;;;;;;;;;;5034488;28;20094;-79
2021/08/13 03:26:48;;;;;;;10.65;5.60;;;;;;;;;;5033358;28;20036;-79
2021/08/13 03:29:14;;;;;;;6.93;5.00;;;;;;;;;;5017777;28;20052;-79
2021/08/13 03:31:42;;;;;;;8.57;5.65;;;;;;;;;;5034219;28;20032;-79
2021/08/13 03:34:08;;;;;;;7.47;6.05;;;;;;;;;;5033707;28;20568;-79
2021/08/13 03:36:34;;;;;;;8.30;6.72;;;;;;;;;;5050637;28;20037;-79
2021/08/13 03:39:00;;;;;;;7.13;5.50;;;;;;;;;;5050192;28;20041;-79
2021/08/13 03:41:25;;;;;;;7.72;6.15;;;;;;;;;;5033881;28;20037;-78
2021/08/13 03:43:51;;;;;;;6.82;5.35;;;;;;;;;;5034020;28;20045;-79
2021/08/13 03:46:16;;;;;;;6.53;5.78;;;;;;;;;;5035963;28;20032;-79
2021/08/13 03:48:42;;;;;;;8.23;6.03;;;;;;;;;;5016889;28;20037;-79
2021/08/13 03:51:07;;;;;;;6.25;5.38;;;;;;;;;;5033708;28;20033;-79
2021/08/13 03:53:33;;;;;;;10.57;7.03;;;;;;;;;;5000903;28;20053;-79
2021/08/13 03:55:58;;;;;;;8.18;6.45;;;;;;;;;;5017165;28;20037;-79
2021/08/13 03:58:24;;;;;;;8.57;6.03;;;;;;;;;;5017286;28;20033;-78
2021/08/13 04:00:49;;;;;;;7.97;5.88;;;;;;;;;;5017047;28;20033;-79
2021/08/13 04:03:15;;;;;;;7.00;6.30;;;;;;;;;;5017054;28;20510;-78
2021/08/13 04:05:40;;;;;;;9.32;6.53;;;;;;;;;;5033465;28;20029;-79
2021/08/13 04:08:06;;;;;;;8.02;6.25;;;;;;;;;;5017156;28;20057;-79
2021/08/13 04:10:32;;;;;;;8.90;6.25;;;;;;;;;;5016799;28;20120;-79
2021/08/13 04:12:57;;;;;;;9.57;6.15;;;;;;;;;;5033873;28;20075;-79
2021/08/13 04:15:23;;;;;;;7.13;5.57;;;;;;;;;;5017186;28;20129;-79
2021/08/13 04:17:48;;;;;;;7.70;5.78;;;;;;;;;;5017001;28;20063;-79
2021/08/13 04:20:14;;;;;;;9.13;6.53;;;;;;;;;;5017044;28;20479;-79
2021/08/13 04:22:40;;;;;;;8.80;6.53;;;;;;;;;;5017003;28;20029;-79
2021/08/13 04:25:06;;;;;;;7.70;6.25;;;;;;;;;;5033229;28;20115;-79
2021/08/13 04:27:31;;;;;;;8.57;6.60;;;;;;;;;;5000924;28;20491;-79
2021/08/13 04:29:57;;;;;;;8.45;5.88;;;;;;;;;;5017222;28;20041;-79
2021/08/13 04:32:22;;;;;;;8.65;6.30;;;;;;;;;;5033654;28;20479;-79
2021/08/13 04:34:47;;;;;;;6.68;5.53;;;;;;;;;;5016776;28;20060;-79
2021/08/13 04:37:13;;;;;;;6.97;6.22;;;;;;;;;;5000605;28;20037;-79
2021/08/13 04:39:38;;;;;;;7.97;7.10;;;;;;;;;;5018654;28;20037;-79
2021/08/13 04:42:04;;;;;;;8.38;6.68;;;;;;;;;;5020511;28;20159;-79
2021/08/13 04:44:29;;;;;;;6.93;5.65;;;;;;;;;;5041546;28;20094;-79
2021/08/13 04:46:55;;;;;;;8.95;6.15;;;;;;;;;;5036980;28;20589;-80
2021/08/13 04:49:20;;;;;;;7.57;6.60;;;;;;;;;;5040348;28;20041;-79
2021/08/13 04:51:46;;;;;;;7.53;6.35;;;;;;;;;;5023629;28;20414;-79
2021/08/13 04:54:11;;;;;;;7.75;5.65;;;;;;;;;;5040567;28;20046;-79
2021/08/13 04:56:37;;;;;;;9.80;6.70;;;;;;;;;;5023784;28;20040;-79
2021/08/13 04:59:03;;;;;;;7.78;6.55;;;;;;;;;;5023597;28;20490;-79
2021/08/13 05:01:29;;;;;;;9.55;6.57;;;;;;;;;;5039941;28;20033;-79
2021/08/13 05:03:54;;;;;;;8.68;6.63;;;;;;;;;;5040197;28;20032;-79
2021/08/13 05:06:20;;;;;;;7.90;6.43;;;;;;;;;;5023512;28;20098;-79
2021/08/13 05:08:45;;;;;;;8.18;6.60;;;;;;;;;;5039887;28;20094;-79
2021/08/13 05:11:11;;;;;;;6.88;5.68;;;;;;;;;;5056945;28;20037;-79
2021/08/13 05:13:36;;;;;;;7.43;6.30;;;;;;;;;;5023033;28;20410;-80
2021/08/13 05:16:02;;;;;;;9.05;6.38;;;;;;;;;;5023027;28;20059;-79
2021/08/13 05:18:27;;;;;;;7.68;6.30;;;;;;;;;;5023561;28;20036;-79
2021/08/13 05:20:53;;;;;;;7.63;6.75;;;;;;;;;;5039543;28;20064;-79
2021/08/13 05:23:18;;;;;;;8.15;6.22;;;;;;;;;;5023056;28;20037;-79
2021/08/13 05:25:44;;;;;;;7.45;6.45;;;;;;;;;;5039638;28;20127;-79
2021/08/13 05:28:09;;;;;;;7.75;6.20;;;;;;;;;;5039565;28;20033;-79
2021/08/13 05:30:34;;;;;;;8.35;6.28;;;;;;;;;;5039731;28;20040;-79
2021/08/13 05:33:01;;;;;;;9.05;6.22;;;;;;;;;;5039686;28;20101;-78
2021/08/13 05:35:27;;;;;;;8.43;6.00;;;;;;;;;;5039717;28;20040;-80
2021/08/13 05:37:53;;;;;;;8.00;7.00;;;;;;;;;;5023090;28;20573;-78
2021/08/13 05:40:18;;;;;;;8.65;6.40;;;;;;;;;;5039080;28;20036;-79
2021/08/13 05:42:44;;;;;;;7.53;5.80;;;;;;;;;;5039110;28;20138;-79
2021/08/13 05:45:10;;;;;;;7.03;5.95;;;;;;;;;;5035966;28;20029;-79
2021/08/13 05:47:38;;;;;;;8.10;6.20;;;;;;;;;;5029888;28;20029;-79
2021/08/13 05:50:06;;;;;;;8.00;6.25;;;;;;;;;;5035944;28;20060;-79
2021/08/13 05:52:31;;;;;;;7.63;5.60;;;;;;;;;;5052139;28;20032;-79
2021/08/13 05:54:57;;;;;;;8.38;5.68;;;;;;;;;;5035550;28;20036;-79
2021/08/13 05:57:22;;;;;;;7.28;5.63;;;;;;;;;;5035861;28;20068;-78
2021/08/13 05:59:48;;;;;;;7.75;6.25;;;;;;;;;;5019031;28;20116;-79
2021/08/13 06:02:18;;;;;;;7.20;5.47;;;;;;;;;;5035523;28;20072;-79
2021/08/13 06:04:44;;;;;;;7.20;5.50;;;;;;;;;;5035891;28;20139;-78
2021/08/13 06:07:10;;;;;;;6.88;5.50;;;;;;;;;;5018809;28;20033;-79
2021/08/13 06:09:36;;;;;;;8.48;6.65;;;;;;;;;;5051901;28;20075;-79
2021/08/13 06:12:01;;;;;;;6.72;5.72;;;;;;;;;;5035597;28;20116;-79
2021/08/13 06:14:27;;;;;;;6.95;5.88;;;;;;;;;;5052459;28;20029;-78
2021/08/13 06:16:52;;;;;;;6.18;5.50;;;;;;;;;;5035404;28;20044;-78
2021/08/13 06:19:18;;;;;;;7.05;5.57;;;;;;;;;;5035288;28;20376;-79
2021/08/13 06:21:43;;;;;;;7.35;5.93;;;;;;;;;;5035018;28;20044;-79
2021/08/13 06:24:08;;;;;;;6.25;5.65;;;;;;;;;;5035223;28;20033;-79
2021/08/13 06:26:34;;;;;;;5.88;5.25;;;;;;;;;;5051441;28;20036;-79
2021/08/13 06:28:59;;;;;;;7.50;5.70;;;;;;;;;;5018837;28;20026;-79
2021/08/13 06:31:25;;;;;;;5.82;5.00;;;;;;;;;;5018715;28;20029;-78
2021/08/13 06:33:51;;;;;;;6.88;5.78;;;;;;;;;;5051782;28;20033;-78
2021/08/13 06:36:18;;;;;;;5.63;4.90;;;;;;;;;;5018356;28;20415;-78
2021/08/13 06:38:44;;;;;;;5.82;5.00;;;;;;;;;;5034651;28;20044;-79
2021/08/13 06:41:09;;;;;;;6.10;5.25;;;;;;;;;;5051172;28;20044;-79
2021/08/13 06:43:35;;;;;;;7.05;5.53;;;;;;;;;;5034615;28;20499;-79
2021/08/13 06:46:00;;;;;;;7.63;5.60;;;;;;;;;;5035779;28;20041;-79
2021/08/13 06:48:26;;;;;;;5.68;5.07;;;;;;;;;;5018149;28;20040;-78
2021/08/13 06:50:51;;;;;;;5.53;4.85;;;;;;;;;;5034980;28;20035;-79
2021/08/13 06:53:17;;;;;;;6.07;4.60;;;;;;;;;;5017792;28;20033;-79
2021/08/13 06:55:42;;;;;;;7.35;4.50;;;;;;;;;;5034358;28;20036;-79
2021/08/13 06:58:08;;;;;;;5.93;4.88;;;;;;;;;;5051365;28;20047;-79
2021/08/13 07:00:33;;;;;;;6.43;4.90;;;;;;;;;;5034308;28;20060;-78
2021/08/13 07:02:59;;;;;;;5.63;4.97;;;;;;;;;;5033923;28;20029;-78
2021/08/13 07:05:25;;;;;;;6.15;4.78;;;;;;;;;;5034347;28;20500;-79
2021/08/13 07:07:51;;;;;;;5.97;4.47;;;;;;;;;;5034678;28;20402;-78
2021/08/13 07:10:16;;;;;;;6.15;5.03;;;;;;;;;;5033876;28;20044;-78
2021/08/13 07:12:42;;;;;;;4.70;3.97;;;;;;;;;;5017742;28;20035;-78
2021/08/13 07:15:09;;;;;;;5.18;4.38;;;;;;;;;;5034439;28;20407;-79
2021/08/13 07:17:34;;;;;;;5.82;4.30;;;;;;;;;;5034474;28;20029;-79
2021/08/13 07:20:00;;;;;;;5.63;4.50;;;;;;;;;;5018014;28;20491;-79
2021/08/13 07:22:26;;;;;;;5.75;4.95;;;;;;;;;;5034080;28;20071;-78
2021/08/13 07:24:51;;;;;;;5.70;4.50;;;;;;;;;;5017270;28;20044;-79
2021/08/13 07:27:17;;;;;;;7.13;4.57;;;;;;;;;;5017610;28;20033;-79
2021/08/13 07:29:42;;;;;;;5.57;4.95;;;;;;;;;;5034357;28;20044;-79
2021/08/13 07:32:08;;;;;;;5.88;4.75;;;;;;;;;;5017678;28;20032;-78
2021/08/13 07:34:33;;;;;;;4.82;4.32;;;;;;;;;;5033706;28;20060;-79
2021/08/13 07:36:59;;;;;;;5.80;4.22;;;;;;;;;;5033905;28;20061;-79
2021/08/13 07:39:24;;;;;;;5.32;4.30;;;;;;;;;;5016957;28;20040;-79
2021/08/13 07:41:49;;;;;;;5.30;4.07;;;;;;;;;;5017231;28;20033;-78
2021/08/13 07:44:15;;;;;;;5.60;4.10;;;;;;;;;;5035867;28;20396;-78
2021/08/13 07:46:40;;;;;;;4.82;4.13;;;;;;;;;;5020583;28;20029;-78
2021/08/13 07:49:06;;;;;;;6.10;4.13;;;;;;;;;;5016893;28;20033;-79
2021/08/13 07:51:32;;;;;;;4.90;3.78;;;;;;;;;;5017269;28;20029;-78
2021/08/13 07:53:57;;;;;;;5.45;4.13;;;;;;;;;;5016945;28;20098;-79
2021/08/13 07:56:23;;;;;;;5.30;3.60;;;;;;;;;;5033669;28;20040;-78
2021/08/13 07:58:48;;;;;;;5.13;3.70;;;;;;;;;;5017732;28;20037;-79
2021/08/13 08:01:16;;;;;;;5.38;3.92;;;;;;;;;;5033916;28;20025;-78
2021/08/13 08:03:42;;;;;;;4.68;3.80;;;;;;;;;;5033963;28;20037;-78
2021/08/13 08:06:07;;;;;;;3.90;2.95;;;;;;;;;;5017279;28;20051;-79
2021/08/13 08:08:33;;;;;;;4.40;3.35;;;;;;;;;;5033368;28;20044;-79
2021/08/13 08:10:58;;;;;;;4.80;3.90;;;;;;;;;;5033838;28;20066;-79
2021/08/13 08:13:24;;;;;;;5.15;3.83;;;;;;;;;;5035899;28;20082;-79
2021/08/13 08:15:49;;;;;;;3.75;3.00;;;;;;;;;;5020979;28;20021;-78
2021/08/13 08:18:15;;;;;;;4.72;3.53;;;;;;;;;;5054506;28;20113;-79
2021/08/13 08:20:41;;;;;;;4.45;3.20;;;;;;;;;;5037389;28;20025;-79
2021/08/13 08:23:06;;;;;;;4.55;3.17;;;;;;;;;;5036668;28;20132;-79
2021/08/13 08:25:32;;;;;;;5.93;3.20;;;;;;;;;;5020593;28;20033;-78
2021/08/13 08:27:58;;;;;;;3.83;2.80;;;;;;;;;;5037339;28;20029;-79
2021/08/13 08:30:24;;;;;;;3.70;2.60;;;;;;;;;;5037586;28;20116;-78
2021/08/13 08:32:49;;;;;;;4.78;2.90;;;;;;;;;;5020622;28;20186;-79
2021/08/13 08:35:15;;;;;;;3.35;2.45;;;;;;;;;;5004551;28;20029;-79
2021/08/13 08:37:54;;;;;;;3.88;2.67;;;;;;;;;;5020580;28;20115;-79
2021/08/13 08:40:34;;;;;;;3.75;2.75;;;;;;;;;;5053620;28;20040;-79
2021/08/13 08:43:00;;;;;;;4.22;3.45;;;;;;;;;;5037336;28;20041;-78
2021/08/13 08:45:28;;;;;;;5.20;3.50;;;;;;;;;;5029239;28;20071;-78
2021/08/13 08:47:58;;;;;;;3.65;2.97;;;;;;;;;;5032040;28;20519;-79
2021/08/13 08:50:25;;;;;;;3.53;2.78;;;;;;;;;;5021472;28;20543;-79
2021/08/13 08:52:50;;;;;;;3.88;2.95;;;;;;;;;;5036390;28;20041;-79
2021/08/13 08:55:16;;;;;;;3.70;2.97;;;;;;;;;;5020328;28;20037;-79
2021/08/13 08:57:41;;;;;;;4.00;2.80;;;;;;;;;;5020505;28;20127;-79
2021/08/13 09:00:08;;;;;;;3.92;2.33;;;;;;;;;;5020559;28;20052;-78
2021/08/13 09:02:33;;;;;;;3.42;2.63;;;;;;;;;;5020489;28;20858;-78
2021/08/13 09:04:59;;;;;;;3.83;2.67;;;;;;;;;;5019845;28;20044;-78
2021/08/13 09:07:26;;;;;;;4.38;2.70;;;;;;;;;;5019519;28;20043;-79
2021/08/13 09:09:51;;;;;;;3.17;2.25;;;;;;;;;;5019739;28;20040;-79
2021/08/13 09:12:17;;;;;;;3.08;2.20;;;;;;;;;;5019998;28;20040;-78
2021/08/13 09:14:42;;;;;;;3.55;2.35;;;;;;;;;;5036558;28;20033;-79
2021/08/13 09:17:08;;;;;;;4.65;2.45;;;;;;;;;;5020039;28;20120;-79
2021/08/13 09:19:43;;;;;;;2.72;2.15;;;;;;;;;;5019717;28;20041;-78
2021/08/13 09:22:17;;;;;;;3.17;1.98;;;;;;;;;;5020324;28;20411;-79
2021/08/13 09:24:44;;;;;;;3.28;2.45;;;;;;;;;;5019207;28;20419;-79
2021/08/13 09:27:15;;;;;;;5.50;2.40;;;;;;;;;;5020005;28;20040;-79
2021/08/13 09:29:41;;;;;;;3.00;2.38;;;;;;;;;;5036548;28;20055;-79
2021/08/13 09:32:06;;;;;;;2.53;2.00;;;;;;;;;;5036339;28;20479;-79
2021/08/13 09:34:32;;;;;;;2.63;1.77;;;;;;;;;;5019612;28;20055;-78
2021/08/13 09:36:57;;;;;;;4.05;2.30;;;;;;;;;;5019516;28;20086;-79
2021/08/13 09:39:30;;;;;;;2.92;2.22;;;;;;;;;;5019233;28;20051;-79
2021/08/13 09:41:57;;;;;;;3.45;2.30;;;;;;;;;;5019978;28;20041;-79
2021/08/13 09:44:27;;;;;;;3.58;2.17;;;;;;;;;;5022699;28;20032;-79
2021/08/13 09:46:55;;;;;;;3.42;2.33;;;;;;;;;;5035806;28;20068;-79
2021/08/13 09:49:21;;;;;;;3.13;1.83;;;;;;;;;;5035387;28;20025;-79
2021/08/13 09:51:46;;;;;;;3.35;1.90;;;;;;;;;;5019321;28;20033;-79
2021/08/13 09:54:12;;;;;;;2.72;1.83;;;;;;;;;;5036002;28;20043;-79
2021/08/13 09:56:38;;;;;;;3.80;2.30;;;;;;;;;;5019483;28;20044;-79
2021/08/13 09:59:28;;;;;;;3.72;2.25;;;;;;;;;;5019511;28;20060;-79
2021/08/13 10:01:53;;;;;;;5.60;2.30;;;;;;;;;;5019230;28;20041;-79
2021/08/13 10:04:20;;;;;;;2.83;2.10;;;;;;;;;;5018806;28;20411;-78
2021/08/13 10:06:45;;;;;;;3.40;2.05;;;;;;;;;;5052012;28;20037;-79
2021/08/13 10:09:27;;;;;;;3.53;2.15;;;;;;;;;;5051789;28;20056;-79
2021/08/13 10:12:03;;;;;;;2.45;2.00;;;;;;;;;;5002756;28;20033;-79
2021/08/13 10:14:36;;;;;;;2.30;1.75;;;;;;;;;;5036265;28;20044;-79
2021/08/13 10:17:17;;;;;;;3.28;1.88;;;;;;;;;;5018686;28;20120;-79
2021/08/13 10:19:47;;;;;;;2.42;1.55;;;;;;;;;;5035594;28;20029;-78
2021/08/13 10:22:14;;;;;;;2.92;1.95;;;;;;;;;;5035395;28;20036;-79
2021/08/13 10:24:39;;;;;;;2.08;1.23;;;;;;;;;;5035161;28;20111;-78
2021/08/13 10:27:05;;;;;;;2.05;1.48;;;;;;;;;;5035327;28;20055;-79
2021/08/13 10:29:31;;;;;;;2.40;1.48;;;;;;;;;;5018823;28;20504;-79
2021/08/13 10:31:57;;;;;;;2.28;1.35;;;;;;;;;;5035153;28;20041;-78
2021/08/13 10:34:22;;;;;;;2.22;1.50;;;;;;;;;;5034642;28;20041;-78
2021/08/13 10:36:48;;;;;;;2.13;1.50;;;;;;;;;;5035048;28;20040;-79
2021/08/13 10:39:16;;;;;;;2.28;1.65;;;;;;;;;;5035180;28;20102;-79
2021/08/13 10:41:42;;;;;;;2.47;1.50;;;;;;;;;;5034948;28;20048;-79
2021/08/13 10:44:08;;;;;;;2.58;1.85;;;;;;;;;;5019662;28;20029;-79
2021/08/13 10:46:34;;;;;;;2.55;1.45;;;;;;;;;;5054649;28;20039;-79
2021/08/13 10:49:00;;;;;;;2.25;1.52;;;;;;;;;;5034590;28;20041;-78
2021/08/13 10:51:29;;;;;;;2.58;1.40;;;;;;;;;;5034825;28;20065;-79
2021/08/13 10:54:08;;;;;;;2.85;1.55;;;;;;;;;;5034827;28;20057;-79
2021/08/13 10:56:53;;;;;;;2.63;1.50;;;;;;;;;;5035174;28;20041;-79
2021/08/13 10:59:57;;;;;;;2.65;1.40;;;;;;;;;;5035003;28;20037;-79
2021/08/13 11:02:23;;;;;;;2.28;1.33;;;;;;;;;;5050010;28;20071;-79
2021/08/13 11:04:50;;;;;;;1.88;1.30;;;;;;;;;;5051050;28;20084;-79
2021/08/13 11:07:53;;;;;;;1.55;1.17;;;;;;;;;;5034824;28;20040;-79
2021/08/13 11:10:51;;;;;;;1.90;1.40;;;;;;;;;;5052097;28;20061;-79
2021/08/13 11:13:20;;;;;;;2.55;1.25;;;;;;;;;;5034285;28;20058;-79
2021/08/13 11:15:46;;;;;;;2.05;1.27;;;;;;;;;;5034193;28;20083;-79
2021/08/13 11:18:32;;;;;;;2.60;1.50;;;;;;;;;;5034046;28;20033;-78
2021/08/13 11:20:58;;;;;;;2.83;1.25;;;;;;;;;;5051669;28;20146;-79
2021/08/13 11:23:24;;;;;;;2.10;1.30;;;;;;;;;;5033874;28;20462;-79
2021/08/13 11:25:53;;;;;;;2.13;1.48;;;;;;;;;;5017571;28;20077;-79
2021/08/13 11:28:20;;;;;;;2.30;1.52;;;;;;;;;;5034084;28;20043;-79
2021/08/13 11:30:46;;;;;;;3.67;1.73;;;;;;;;;;5017541;28;20029;-79
2021/08/13 11:33:29;;;;;;;2.20;1.30;;;;;;;;;;5050677;28;20120;-79
2021/08/13 11:35:56;;;;;;;2.20;1.20;;;;;;;;;;5050546;28;20041;-79
2021/08/13 11:38:43;;;;;;;2.92;1.33;;;;;;;;;;5050415;28;20039;-79
2021/08/13 11:41:21;;;;;;;2.80;1.45;;;;;;;;;;5050630;28;20041;-79
2021/08/13 11:43:49;;;;;;;2.00;1.23;;;;;;;;;;5051888;28;20495;-79
2021/08/13 11:46:26;;;;;;;1.92;1.17;;;;;;;;;;5053030;28;20490;-79
2021/08/13 11:48:58;;;;;;;2.30;1.38;;;;;;;;;;5050424;28;20041;-79
2021/08/13 11:51:25;;;;;;;2.70;1.40;;;;;;;;;;5034123;28;20501;-79
2021/08/13 11:53:51;;;;;;;1.95;1.38;;;;;;;;;;5034034;28;20028;-79
2021/08/13 11:56:24;;;;;;;2.30;1.08;;;;;;;;;;5033649;28;20475;-80
2021/08/13 11:59:07;;;;;;;1.88;1.20;;;;;;;;;;5034259;28;20044;-79
2021/08/13 12:01:52;;;;;;;1.58;1.05;;;;;;;;;;5016914;28;20033;-79
2021/08/13 12:04:24;;;;;;;2.45;1.40;;;;;;;;;;5033543;28;20024;-78
2021/08/13 12:07:04;;;;;;;3.08;1.17;;;;;;;;;;5033692;28;20574;-79
2021/08/13 12:09:37;;;;;;;1.73;1.20;;;;;;;;;;5033567;28;20059;-79
2021/08/13 12:12:07;;;;;;;2.10;1.33;;;;;;;;;;5017408;28;20052;-79
2021/08/13 12:14:38;;;;;;;2.58;1.10;;;;;;;;;;5033713;28;20029;-79
2021/08/13 12:17:04;;;;;;;2.23;1.40;;;;;;;;;;5050272;28;20107;-79
2021/08/13 12:19:29;;;;;;;2.00;1.25;;;;;;;;;;5033676;28;20439;-79
2021/08/13 12:21:59;;;;;;;2.33;1.05;;;;;;;;;;5049994;28;20029;-79
2021/08/13 12:24:28;;;;;;;1.88;1.20;;;;;;;;;;5017141;28;20041;-79
2021/08/13 12:26:58;;;;;;;2.53;1.40;;;;;;;;;;5050227;28;20042;-79
2021/08/13 12:29:28;;;;;;;2.40;1.33;;;;;;;;;;5016973;28;20429;-79
2021/08/13 12:31:55;;;;;;;3.08;1.30;;;;;;;;;;5034123;28;20040;-78
2021/08/13 12:34:25;;;;;;;2.42;1.52;;;;;;;;;;5033571;28;20037;-78
2021/08/13 12:37:07;;;;;;;1.80;1.20;;;;;;;;;;5017032;28;20039;-79
2021/08/13 12:39:35;;;;;;;1.73;1.20;;;;;;;;;;5033290;28;20033;-79
2021/08/13 12:42:00;;;;;;;1.77;1.20;;;;;;;;;;5033726;28;20159;-79
2021/08/13 12:44:26;;;;;;;2.10;1.42;;;;;;;;;;5033567;28;20111;-79
2021/08/13 12:46:52;;;;;;;2.20;1.17;;;;;;;;;;5049992;28;20029;-78
2021/08/13 12:49:19;;;;;;;2.20;1.20;;;;;;;;;;5016795;28;20491;-79
2021/08/13 12:51:44;;;;;;;2.72;1.35;;;;;;;;;;5033078;28;20037;-79
2021/08/13 12:54:32;;;;;;;1.80;0.93;;;;;;;;;;5033251;28;20040;-79
2021/08/13 12:56:58;;;;;;;2.03;1.30;;;;;;;;;;5049759;28;20451;-79
2021/08/13 12:59:33;;;;;;;1.70;1.13;;;;;;;;;;5016743;28;20041;-79
2021/08/13 13:01:58;;;;;;;2.08;1.40;;;;;;;;;;5036940;28;20044;-79
2021/08/13 13:04:43;;;;;;;2.00;1.17;;;;;;;;;;5020379;28;20033;-79
2021/08/13 13:07:13;;;;;;;2.00;1.35;;;;;;;;;;5019876;28;20032;-79
2021/08/13 13:09:40;;;;;;;2.42;1.10;;;;;;;;;;5020361;28;20040;-79
2021/08/13 13:12:13;;;;;;;2.30;1.55;;;;;;;;;;5036475;28;20119;-79
2021/08/13 13:14:38;;;;;;;2.30;1.50;;;;;;;;;;5020136;28;20032;-79
2021/08/13 13:17:08;;;;;;;2.80;1.63;;;;;;;;;;5036471;28;20434;-79
2021/08/13 13:19:34;;;;;;;2.90;1.63;;;;;;;;;;5036525;28;20120;-79
2021/08/13 13:22:20;;;;;;;2.78;1.75;;;;;;;;;;5036145;28;20029;-79
2021/08/13 13:24:46;;;;;;;2.58;1.55;;;;;;;;;;5036304;28;20087;-78
2021/08/13 13:27:11;;;;;;;2.83;1.70;;;;;;;;;;5035767;28;20041;-78
2021/08/13 13:29:46;;;;;;;2.60;1.80;;;;;;;;;;5036354;28;20033;-79
2021/08/13 13:32:16;;;;;;;1.88;1.35;;;;;;;;;;5037091;28;20108;-79
2021/08/13 13:35:01;;;;;;;2.28;1.60;;;;;;;;;;5019786;28;20105;-79
2021/08/13 13:37:27;;;;;;;2.22;1.42;;;;;;;;;;5019470;28;20033;-79
2021/08/13 13:39:53;;;;;;;2.90;1.58;;;;;;;;;;5019388;28;20044;-79
2021/08/13 13:42:25;;;;;;;2.75;1.60;;;;;;;;;;5019076;28;20037;-78
2021/08/13 13:44:52;;;;;;;2.40;1.60;;;;;;;;;;5051258;28;20036;-79
2021/08/13 13:47:18;;;;;;;2.78;1.85;;;;;;;;;;5027559;28;20037;-79
2021/08/13 13:49:43;;;;;;;1.90;1.25;;;;;;;;;;5019701;28;20170;-79
2021/08/13 13:52:09;;;;;;;2.60;1.40;;;;;;;;;;5002906;28;20025;-79
2021/08/13 13:54:34;;;;;;;2.75;1.70;;;;;;;;;;5019278;28;20040;-79
2021/08/13 13:57:00;;;;;;;2.72;1.80;;;;;;;;;;5035384;28;20119;-79
2021/08/13 13:59:25;;;;;;;2.38;1.65;;;;;;;;;;5036315;28;20052;-79
2021/08/13 14:01:51;;;;;;;2.28;1.40;;;;;;;;;;5019171;28;20103;-78
2021/08/13 14:04:16;;;;;;;2.72;1.77;;;;;;;;;;5035887;28;20045;-79
2021/08/13 14:06:42;;;;;;;2.25;1.48;;;;;;;;;;5002361;28;20029;-78
2021/08/13 14:09:07;;;;;;;2.13;1.42;;;;;;;;;;5002540;28;20043;-79
2021/08/13 14:11:33;;;;;;;2.67;1.55;;;;;;;;;;5018392;28;20040;-79
2021/08/13 14:14:01;;;;;;;2.03;1.30;;;;;;;;;;5002760;28;20175;-79
2021/08/13 14:16:26;;;;;;;3.00;1.85;;;;;;;;;;5020030;28;20039;-79
2021/08/13 14:18:52;;;;;;;2.60;1.50;;;;;;;;;;5019019;28;20033;-79
2021/08/13 14:21:17;;;;;;;2.47;1.48;;;;;;;;;;5035202;28;20106;-79
2021/08/13 14:23:43;;;;;;;2.45;1.30;;;;;;;;;;5002457;28;20043;-79
2021/08/13 14:26:08;;;;;;;3.15;1.92;;;;;;;;;;5018470;28;20158;-79
2021/08/13 14:28:34;;;;;;;2.33;1.55;;;;;;;;;;5018846;28;20033;-78
2021/08/13 14:31:01;;;;;;;2.00;1.42;;;;;;;;;;5018759;28;20104;-79
2021/08/13 14:33:27;;;;;;;2.75;1.92;;;;;;;;;;5003175;28;20037;-79
2021/08/13 14:35:52;;;;;;;2.08;1.52;;;;;;;;;;5018417;28;20082;-79
2021/08/13 14:38:18;;;;;;;2.92;1.83;;;;;;;;;;5002241;28;20155;-79
2021/08/13 14:40:44;;;;;;;2.63;1.73;;;;;;;;;;5018204;28;20053;-79
2021/08/13 14:43:09;;;;;;;2.88;1.77;;;;;;;;;;5018617;28;20037;-79
2021/08/13 14:45:35;;;;;;;2.58;1.65;;;;;;;;;;5031309;28;20598;-79
2021/08/13 14:48:00;;;;;;;2.83;1.67;;;;;;;;;;5051307;28;20061;-79